Time;durP1;ratioP1;P1;durP2;ratioP2;P2;SDS_P1;SDS_P2;PMS_P1;PMS_P2;Temp;Humidity;BMP_temperature;BMP_pressure;BME280_temperature;BME280_humidity;BME280_pressure;Samples;Min_cycle;Max_cycle;Signal;HPM_P1;HPM_P2
2023/01/02 00:00:34;;;;;;;16.10;10.40;;;6.20;99.90;;;;;;6263825;28;20472;-64
2023/01/02 00:03:39;;;;;;;11.30;10.13;;;6.10;99.90;;;;;;6241891;28;20467;-65
2023/01/02 00:06:42;;;;;;;11.60;10.40;;;6.20;99.90;;;;;;6251753;28;20479;-65
2023/01/02 00:09:45;;;;;;;14.27;10.10;;;6.10;99.90;;;;;;6250423;28;20486;-66
2023/01/02 00:12:49;;;;;;;11.77;10.20;;;6.20;99.90;;;;;;6247815;28;20490;-65
2023/01/02 00:15:52;;;;;;;11.23;9.93;;;6.10;99.90;;;;;;6249206;28;20474;-65
2023/01/02 00:18:56;;;;;;;11.57;10.30;;;6.10;99.90;;;;;;6249591;28;20568;-65
2023/01/02 00:22:00;;;;;;;13.37;11.23;;;6.20;99.90;;;;;;6249505;28;20478;-65
2023/01/02 00:25:03;;;;;;;14.93;10.57;;;6.10;99.90;;;;;;6253962;28;20481;-65
2023/01/02 00:28:06;;;;;;;13.17;10.20;;;6.10;99.90;;;;;;6274832;28;20474;-66
2023/01/02 00:31:11;;;;;;;13.03;10.10;;;6.00;99.90;;;;;;6273633;28;20489;-65
2023/01/02 00:34:16;;;;;;;11.33;10.13;;;6.00;99.90;;;;;;6274649;28;20536;-65
2023/01/02 00:37:19;;;;;;;12.73;10.23;;;6.00;99.90;;;;;;6273834;28;20811;-66
2023/01/02 00:40:23;;;;;;;12.23;10.07;;;5.90;99.90;;;;;;6274144;28;20470;-61
2023/01/02 00:43:26;;;;;;;11.63;10.20;;;5.90;99.90;;;;;;6274124;28;20470;-61
2023/01/02 00:46:29;;;;;;;12.53;10.00;;;5.90;99.90;;;;;;6274075;28;20477;-61
2023/01/02 00:49:34;;;;;;;14.23;9.70;;;5.90;99.90;;;;;;6274048;28;20474;-61
2023/01/02 00:52:37;;;;;;;11.00;9.07;;;5.90;99.90;;;;;;6274656;28;20474;-66
2023/01/02 00:55:41;;;;;;;10.03;8.63;;;6.00;99.90;;;;;;6274066;28;20575;-63
2023/01/02 00:58:44;;;;;;;14.00;8.50;;;6.00;99.90;;;;;;6273863;28;20477;-63
2023/01/02 01:01:47;;;;;;;11.60;9.47;;;5.90;99.90;;;;;;6251369;28;20939;-63
2023/01/02 01:04:52;;;;;;;18.90;9.90;;;5.80;99.90;;;;;;6249268;28;20605;-64
2023/01/02 01:07:56;;;;;;;14.60;9.70;;;5.90;99.90;;;;;;6241665;28;20480;-63
2023/01/02 01:11:05;;;;;;;11.50;10.30;;;5.90;99.90;;;;;;6224805;28;20797;-64
2023/01/02 01:14:08;;;;;;;14.23;9.50;;;5.90;99.90;;;;;;6224150;28;20480;-64
2023/01/02 01:17:11;;;;;;;13.23;9.20;;;5.90;99.90;;;;;;6227629;28;20515;-63
2023/01/02 01:20:16;;;;;;;11.80;8.80;;;5.90;99.90;;;;;;6227893;28;20471;-66
2023/01/02 01:23:21;;;;;;;11.23;8.80;;;5.90;99.90;;;;;;6227524;28;20475;-66
2023/01/02 01:26:25;;;;;;;10.83;9.70;;;5.90;99.90;;;;;;6228722;28;20462;-66
2023/01/02 01:29:28;;;;;;;15.03;9.57;;;5.80;99.90;;;;;;6227446;28;20495;-66
2023/01/02 01:32:31;;;;;;;13.87;10.77;;;5.80;99.90;;;;;;6238195;28;20439;-66
2023/01/02 01:35:36;;;;;;;10.90;9.90;;;5.70;99.90;;;;;;6251670;28;20439;-66
2023/01/02 01:38:39;;;;;;;11.80;9.30;;;5.70;99.90;;;;;;6242126;28;20938;-65
2023/01/02 01:41:43;;;;;;;15.17;11.27;;;5.70;99.90;;;;;;6252613;28;20463;-65
2023/01/02 01:44:48;;;;;;;13.77;9.87;;;5.70;99.90;;;;;;6252719;28;20474;-66
2023/01/02 01:47:55;;;;;;;11.83;10.00;;;5.70;99.90;;;;;;6252734;28;20474;-65
2023/01/02 01:50:59;;;;;;;15.07;10.87;;;5.60;99.90;;;;;;6250121;28;20470;-66
2023/01/02 01:54:08;;;;;;;12.83;9.70;;;5.60;99.90;;;;;;6251858;28;20482;-66
2023/01/02 01:57:15;;;;;;;11.43;9.13;;;5.60;99.90;;;;;;6252667;28;20482;-65
2023/01/02 02:00:18;;;;;;;10.70;8.83;;;5.50;99.90;;;;;;6262955;28;20799;-66
2023/01/02 02:03:25;;;;;;;11.47;10.27;;;5.50;99.90;;;;;;6278361;28;20466;-66
2023/01/02 02:06:30;;;;;;;10.03;9.00;;;5.50;99.90;;;;;;6277448;28;20482;-66
2023/01/02 02:09:38;;;;;;;10.80;9.10;;;5.40;99.90;;;;;;6272251;28;20814;-66
2023/01/02 02:12:42;;;;;;;10.70;9.10;;;5.40;99.90;;;;;;6277451;28;20787;-65
2023/01/02 02:15:55;;;;;;;8.90;7.77;;;5.40;99.90;;;;;;6277524;28;20473;-65
2023/01/02 02:19:20;;;;;;;12.60;8.20;;;5.40;99.90;;;;;;6277324;28;20470;-65
2023/01/02 02:22:50;;;;;;;8.70;7.37;;;5.40;99.90;;;;;;6264478;28;20481;-65
2023/01/02 02:26:40;;;;;;;8.53;7.60;;;5.40;99.90;;;;;;6265374;28;20467;-65
2023/01/02 02:30:10;;;;;;;8.70;7.70;;;5.40;99.90;;;;;;6205480;28;20480;-65
2023/01/02 02:33:32;;;;;;;10.27;8.40;;;5.40;99.90;;;;;;6250670;28;21222;-66
2023/01/02 02:36:40;;;;;;;9.43;7.40;;;5.30;99.90;;;;;;6251020;28;20467;-65
2023/01/02 02:39:54;;;;;;;9.40;8.33;;;5.30;99.90;;;;;;6250203;28;20494;-66
2023/01/02 02:43:08;;;;;;;9.10;8.03;;;5.30;99.90;;;;;;6250611;28;20500;-66
2023/01/02 02:46:18;;;;;;;9.07;7.60;;;5.20;99.90;;;;;;6251108;28;20517;-65
2023/01/02 02:49:35;;;;;;;8.00;7.20;;;5.20;99.90;;;;;;6251307;28;20479;-66
2023/01/02 02:52:43;;;;;;;8.57;7.60;;;5.20;99.90;;;;;;6251704;28;20839;-66
2023/01/02 02:55:50;;;;;;;9.00;7.73;;;5.10;99.90;;;;;;6251561;28;20479;-65
2023/01/02 02:58:54;;;;;;;8.43;7.63;;;5.10;99.90;;;;;;6251020;28;20483;-65
2023/01/02 03:01:58;;;;;;;11.03;7.53;;;5.10;99.90;;;;;;6251250;28;20990;-65
2023/01/02 03:05:05;;;;;;;7.97;7.13;;;5.10;99.90;;;;;;6251470;28;20459;-65
2023/01/02 03:08:16;;;;;;;12.40;6.87;;;5.10;99.90;;;;;;6251216;28;20475;-65
2023/01/02 03:11:27;;;;;;;8.93;7.77;;;5.10;99.90;;;;;;6250858;28;20487;-65
2023/01/02 03:14:37;;;;;;;8.83;6.83;;;5.00;99.90;;;;;;6251309;28;20467;-66
2023/01/02 03:17:54;;;;;;;9.67;7.13;;;5.00;99.90;;;;;;6250896;28;20455;-65
2023/01/02 03:21:04;;;;;;;10.80;7.57;;;5.00;99.90;;;;;;6250660;28;20931;-66
2023/01/02 03:24:11;;;;;;;8.63;7.43;;;5.00;99.90;;;;;;6250975;28;20850;-66
2023/01/02 03:27:19;;;;;;;8.90;6.87;;;5.00;99.90;;;;;;6273666;28;20545;-66
2023/01/02 03:30:23;;;;;;;7.80;6.13;;;5.00;99.90;;;;;;6275213;28;20474;-66
2023/01/02 03:33:31;;;;;;;7.87;7.17;;;4.90;99.90;;;;;;6275259;28;20794;-66
2023/01/02 03:36:37;;;;;;;7.73;6.93;;;4.90;99.90;;;;;;6275466;28;20473;-66
2023/01/02 03:39:44;;;;;;;8.17;6.40;;;4.90;99.90;;;;;;6274500;28;20481;-65
2023/01/02 03:42:53;;;;;;;8.23;6.33;;;4.90;99.90;;;;;;6277070;28;20481;-66
2023/01/02 03:46:04;;;;;;;6.97;6.27;;;4.90;99.90;;;;;;6277547;28;20466;-65
2023/01/02 03:49:13;;;;;;;12.20;6.93;;;4.90;99.90;;;;;;6275193;28;20474;-65
2023/01/02 03:52:16;;;;;;;7.80;5.40;;;4.90;99.90;;;;;;6275269;28;20474;-66
2023/01/02 03:55:29;;;;;;;6.33;5.67;;;4.90;99.90;;;;;;6275748;28;20850;-66
2023/01/02 03:58:44;;;;;;;6.70;6.00;;;4.90;99.90;;;;;;6274973;28;20470;-66
2023/01/02 04:01:50;;;;;;;9.40;7.03;;;4.90;99.90;;;;;;6252681;28;20487;-67
2023/01/02 04:04:58;;;;;;;6.90;5.73;;;4.80;99.90;;;;;;6250499;28;20475;-67
2023/01/02 04:08:07;;;;;;;7.13;6.40;;;4.70;99.90;;;;;;6249929;28;20798;-67
2023/01/02 04:11:13;;;;;;;6.00;5.50;;;4.60;99.90;;;;;;6249636;28;20483;-67
2023/01/02 04:14:20;;;;;;;10.07;6.70;;;4.60;99.90;;;;;;6250589;28;20960;-67
2023/01/02 04:17:24;;;;;;;7.10;6.40;;;4.70;99.90;;;;;;6248347;28;20509;-66
2023/01/02 04:20:33;;;;;;;8.63;7.40;;;4.70;99.90;;;;;;6251179;28;20462;-67
2023/01/02 04:23:40;;;;;;;9.87;6.67;;;4.70;99.90;;;;;;6250799;28;20768;-67
2023/01/02 04:26:48;;;;;;;6.53;5.87;;;4.70;99.90;;;;;;6251890;28;20455;-66
2023/01/02 04:29:52;;;;;;;11.47;7.20;;;4.60;99.90;;;;;;6253714;28;20463;-67
2023/01/02 04:32:57;;;;;;;9.20;5.80;;;4.60;99.90;;;;;;6252726;28;20470;-67
2023/01/02 04:36:09;;;;;;;6.07;5.57;;;4.70;99.90;;;;;;6249614;28;20803;-67
2023/01/02 04:39:12;;;;;;;9.47;5.83;;;4.70;99.90;;;;;;6249919;28;20484;-66
2023/01/02 04:42:15;;;;;;;7.60;5.70;;;4.70;99.90;;;;;;6250996;28;20482;-66
2023/01/02 04:45:19;;;;;;;5.70;5.10;;;4.70;99.90;;;;;;6249980;28;20467;-66
2023/01/02 04:48:22;;;;;;;5.63;4.93;;;4.70;99.90;;;;;;6249496;28;20481;-66
2023/01/02 04:51:26;;;;;;;5.90;5.30;;;4.80;99.90;;;;;;6253605;28;20467;-67
2023/01/02 04:54:29;;;;;;;6.10;5.50;;;4.70;99.90;;;;;;6254381;28;20475;-66
2023/01/02 04:57:33;;;;;;;6.33;5.73;;;4.80;99.90;;;;;;6254253;28;20475;-66
2023/01/02 05:00:36;;;;;;;6.27;5.67;;;4.80;99.90;;;;;;6254472;28;20467;-66
2023/01/02 05:03:40;;;;;;;6.43;5.27;;;4.80;99.90;;;;;;6254081;28;20470;-66
2023/01/02 05:06:44;;;;;;;13.67;6.27;;;4.80;99.90;;;;;;6254057;28;20565;-65
2023/01/02 05:09:47;;;;;;;7.50;6.37;;;4.90;99.90;;;;;;6253689;28;20481;-66
2023/01/02 05:12:51;;;;;;;6.30;5.50;;;4.90;99.90;;;;;;6254071;28;20797;-65
2023/01/02 05:15:55;;;;;;;6.97;6.03;;;4.90;99.90;;;;;;6254216;28;20478;-65
2023/01/02 05:18:58;;;;;;;6.70;5.90;;;4.90;99.90;;;;;;6253613;28;20479;-65
2023/01/02 05:25:24;;;;;;;7.47;6.00;;;4.90;99.90;;;;;;6261237;28;20474;-66
2023/01/02 05:28:27;;;;;;;7.07;6.17;;;4.90;99.90;;;;;;6278290;28;20485;-65
2023/01/02 05:31:37;;;;;;;6.43;5.03;;;4.90;99.90;;;;;;6278380;28;20485;-67
2023/01/02 05:34:40;;;;;;;7.53;6.37;;;5.00;99.90;;;;;;6278569;28;20466;-66
2023/01/02 05:37:44;;;;;;;6.67;4.80;;;5.00;99.90;;;;;;6277493;28;20489;-65
2023/01/02 05:40:48;;;;;;;6.83;6.07;;;5.00;99.90;;;;;;6276623;28;20467;-65
2023/01/02 05:43:51;;;;;;;7.53;5.93;;;5.00;99.90;;;;;;6276549;28;20470;-65
2023/01/02 05:46:54;;;;;;;5.60;5.10;;;5.00;99.90;;;;;;6276469;28;20485;-65
2023/01/02 05:49:57;;;;;;;5.87;5.27;;;5.00;99.90;;;;;;6283520;22;20474;-66
2023/01/02 05:53:02;;;;;;;8.27;5.60;;;5.10;99.90;;;;;;6276337;28;20999;-65
2023/01/02 05:56:06;;;;;;;6.83;5.90;;;5.10;99.90;;;;;;6277324;28;20805;-65
2023/01/02 05:59:10;;;;;;;7.37;5.90;;;5.10;99.90;;;;;;6277569;28;20470;-65
2023/01/02 06:02:13;;;;;;;9.03;6.50;;;5.10;99.90;;;;;;6276630;28;20787;-65
2023/01/02 06:05:16;;;;;;;8.37;6.90;;;5.10;99.90;;;;;;6276622;28;20527;-65
2023/01/02 06:08:21;;;;;;;7.70;6.07;;;5.20;99.90;;;;;;6277069;28;20489;-65
2023/01/02 06:11:24;;;;;;;7.33;6.63;;;5.10;99.90;;;;;;6277427;28;20474;-65
2023/01/02 06:14:27;;;;;;;8.33;6.40;;;5.10;99.90;;;;;;6277612;28;20434;-66
2023/01/02 06:17:30;;;;;;;7.03;6.43;;;5.00;99.90;;;;;;6276945;28;20462;-65
2023/01/02 06:20:33;;;;;;;7.83;6.50;;;5.00;99.90;;;;;;6277272;28;20438;-65
2023/01/02 06:23:38;;;;;;;7.63;6.87;;;4.90;99.90;;;;;;6277369;28;20442;-65
2023/01/02 06:26:41;;;;;;;10.90;7.20;;;4.80;99.90;;;;;;6295249;28;20452;-65
2023/01/02 06:29:44;;;;;;;9.80;7.57;;;4.80;99.90;;;;;;6301771;28;20457;-65
2023/01/02 06:32:48;;;;;;;8.03;6.00;;;4.80;99.90;;;;;;6302102;28;20543;-65
2023/01/02 06:35:57;;;;;;;6.77;5.80;;;4.80;99.90;;;;;;6301738;28;20556;-65
2023/01/02 06:39:02;;;;;;;7.07;5.47;;;4.70;99.90;;;;;;6301609;28;20829;-65
2023/01/02 06:42:05;;;;;;;8.60;7.00;;;4.80;99.90;;;;;;6301463;28;21035;-65
2023/01/02 06:45:09;;;;;;;6.50;5.90;;;4.60;99.90;;;;;;6301575;28;20965;-66
2023/01/02 06:48:12;;;;;;;6.87;6.23;;;4.60;99.90;;;;;;6301121;28;20473;-65
2023/01/02 06:51:17;;;;;;;6.97;6.20;;;4.60;99.90;;;;;;6301317;28;20806;-65
2023/01/02 06:54:21;;;;;;;6.50;5.87;;;4.60;99.90;;;;;;6301729;28;20465;-65
2023/01/02 06:57:24;;;;;;;7.70;6.27;;;4.60;99.90;;;;;;6301657;28;20485;-65
2023/01/02 07:00:28;;;;;;;7.80;6.03;;;4.60;99.90;;;;;;6301291;28;20480;-65
2023/01/02 07:03:31;;;;;;;6.97;6.20;;;4.60;99.90;;;;;;6301113;28;20483;-65
2023/01/02 07:06:34;;;;;;;7.00;6.33;;;4.60;99.90;;;;;;6282428;28;20789;-65
2023/01/02 07:09:39;;;;;;;9.53;6.43;;;4.70;99.90;;;;;;6276093;28;20470;-65
2023/01/02 07:12:42;;;;;;;7.90;7.10;;;4.70;99.90;;;;;;6276043;28;20485;-65
2023/01/02 07:15:45;;;;;;;10.30;6.57;;;4.80;99.90;;;;;;6275917;28;20482;-65
2023/01/02 07:18:49;;;;;;;9.53;6.90;;;4.80;99.90;;;;;;6276098;28;20486;-66
2023/01/02 07:21:52;;;;;;;7.37;6.70;;;4.80;99.90;;;;;;6275836;28;20957;-65
2023/01/02 07:24:57;;;;;;;8.07;7.23;;;4.90;99.90;;;;;;6279794;28;20470;-65
2023/01/02 07:28:00;;;;;;;9.57;7.43;;;5.00;99.90;;;;;;6300614;28;20977;-65
2023/01/02 07:31:05;;;;;;;9.00;7.60;;;5.00;99.90;;;;;;6295846;28;20488;-65
2023/01/02 07:34:08;;;;;;;8.00;6.97;;;5.10;99.90;;;;;;6300919;28;20481;-65
2023/01/02 07:37:11;;;;;;;7.67;6.60;;;5.20;99.90;;;;;;6300660;28;20465;-65
2023/01/02 07:40:16;;;;;;;9.13;7.90;;;5.20;99.90;;;;;;6300541;28;20461;-65
2023/01/02 07:43:19;;;;;;;9.20;7.30;;;5.20;99.90;;;;;;6301568;28;20473;-65
2023/01/02 07:46:23;;;;;;;8.57;7.77;;;5.20;99.90;;;;;;6300978;28;20469;-65
2023/01/02 07:49:26;;;;;;;9.50;8.50;;;5.20;99.90;;;;;;6300114;28;20465;-66
2023/01/02 07:52:29;;;;;;;8.07;7.27;;;5.30;99.90;;;;;;6300532;28;20480;-65
2023/01/02 07:55:34;;;;;;;9.00;6.97;;;5.30;99.90;;;;;;6300435;28;20473;-66
2023/01/02 07:58:37;;;;;;;7.17;6.47;;;5.30;99.90;;;;;;6300219;28;20469;-65
2023/01/02 08:01:41;;;;;;;7.87;6.97;;;5.30;99.90;;;;;;6301564;28;20755;-66
2023/01/02 08:04:44;;;;;;;10.77;7.30;;;5.40;99.90;;;;;;6297040;28;20470;-66
2023/01/02 08:07:47;;;;;;;7.17;6.47;;;5.40;99.90;;;;;;6252563;28;20475;-65
2023/01/02 08:10:52;;;;;;;12.23;8.40;;;5.40;99.90;;;;;;6266142;28;20780;-66
2023/01/02 08:13:55;;;;;;;9.63;8.67;;;5.30;99.90;;;;;;6277599;28;20485;-66
2023/01/02 08:16:58;;;;;;;11.93;10.80;;;5.40;99.90;;;;;;6277893;28;20481;-65
2023/01/02 08:20:02;;;;;;;14.40;12.00;;;5.50;99.90;;;;;;6276979;28;20540;-66
2023/01/02 08:23:10;;;;;;;13.23;11.90;;;5.60;99.90;;;;;;6277356;28;20559;-65
2023/01/02 08:26:15;;;;;;;11.07;9.77;;;5.70;99.90;;;;;;6276828;28;20513;-64
2023/01/02 08:29:18;;;;;;;11.07;9.97;;;5.80;99.90;;;;;;6274937;28;20470;-65
2023/01/02 08:32:21;;;;;;;10.60;9.60;;;5.90;99.90;;;;;;6274343;28;20486;-66
2023/01/02 08:35:24;;;;;;;9.93;8.80;;;6.10;99.90;;;;;;6259983;28;20498;-65
2023/01/02 08:38:40;;;;;;;13.17;8.60;;;6.20;99.90;;;;;;6265272;28;20454;-65
2023/01/02 08:41:45;;;;;;;12.13;10.53;;;6.20;99.90;;;;;;6260827;28;20449;-65
2023/01/02 08:44:48;;;;;;;14.27;11.70;;;6.30;99.90;;;;;;6263880;28;20466;-65
2023/01/02 08:47:51;;;;;;;12.43;11.20;;;6.40;99.90;;;;;;6252942;28;20477;-65
2023/01/02 08:50:55;;;;;;;12.47;11.00;;;6.50;99.90;;;;;;6260450;28;20459;-65
2023/01/02 08:53:58;;;;;;;14.80;11.33;;;6.60;99.90;;;;;;6260801;28;20792;-65
2023/01/02 08:57:02;;;;;;;13.13;10.73;;;6.60;99.90;;;;;;6254029;28;20471;-64
2023/01/02 09:00:07;;;;;;;12.00;10.80;;;6.80;99.90;;;;;;6268473;28;20992;-65
2023/01/02 09:03:10;;;;;;;15.07;11.00;;;6.90;99.90;;;;;;6275484;28;20473;-65
2023/01/02 09:06:13;;;;;;;14.60;12.37;;;7.00;99.90;;;;;;6265413;28;20482;-64
2023/01/02 09:09:23;;;;;;;14.97;11.80;;;7.10;99.90;;;;;;6252790;28;20529;-66
2023/01/02 09:12:28;;;;;;;24.13;15.50;;;7.30;99.90;;;;;;6271284;28;20471;-66
2023/01/02 09:15:31;;;;;;;20.80;17.00;;;7.50;99.90;;;;;;6266639;28;20470;-66
2023/01/02 09:18:34;;;;;;;22.63;15.67;;;7.50;99.90;;;;;;6260621;28;20470;-65
2023/01/02 09:21:37;;;;;;;18.60;16.07;;;7.40;99.90;;;;;;6249343;28;20463;-66
2023/01/02 09:24:41;;;;;;;17.83;16.00;;;7.50;99.90;;;;;;6252802;28;20949;-66
2023/01/02 09:27:46;;;;;;;16.07;14.33;;;7.70;99.90;;;;;;6298537;28;20814;-65
2023/01/02 09:30:49;;;;;;;19.93;15.73;;;7.80;99.90;;;;;;6299285;28;20476;-66
2023/01/02 09:33:53;;;;;;;17.10;15.17;;;8.00;99.90;;;;;;6282862;28;20469;-66
2023/01/02 09:36:56;;;;;;;18.53;15.03;;;8.20;99.90;;;;;;6278435;28;20552;-64
2023/01/02 09:40:00;;;;;;;17.20;14.83;;;8.40;99.90;;;;;;6283799;28;20469;-65
2023/01/02 09:43:04;;;;;;;17.80;15.57;;;8.50;99.90;;;;;;6280778;28;20474;-66
2023/01/02 09:46:17;;;;;;;21.90;15.73;;;8.30;99.90;;;;;;6278244;28;20798;-65
2023/01/02 09:49:22;;;;;;;18.73;15.57;;;8.20;99.90;;;;;;6278621;28;20477;-65
2023/01/02 09:52:29;;;;;;;17.97;15.60;;;8.30;99.90;;;;;;6278084;28;20478;-65
2023/01/02 09:55:43;;;;;;;18.50;14.90;;;8.40;99.90;;;;;;6278520;28;20489;-66
2023/01/02 09:58:54;;;;;;;16.13;13.63;;;8.50;99.90;;;;;;6279033;28;20478;-65
2023/01/02 10:02:14;;;;;;;20.30;14.13;;;8.70;99.90;;;;;;6257519;28;20474;-65
2023/01/02 10:05:51;;;;;;;15.50;13.90;;;9.00;99.90;;;;;;6253686;28;20494;-64
2023/01/02 10:09:03;;;;;;;16.60;14.03;;;9.40;99.90;;;;;;6253552;28;20475;-64
2023/01/02 10:12:15;;;;;;;15.23;13.10;;;9.60;99.90;;;;;;6277627;28;20478;-64
2023/01/02 10:15:24;;;;;;;15.60;11.63;;;9.90;99.90;;;;;;6277816;28;20485;-65
2023/01/02 10:18:31;;;;;;;13.27;11.80;;;10.00;99.90;;;;;;6278356;28;20509;-65
2023/01/02 10:21:37;;;;;;;12.70;11.33;;;10.10;99.90;;;;;;6277680;28;20458;-65
2023/01/02 10:24:46;;;;;;;12.30;10.60;;;10.20;99.90;;;;;;6279464;28;20489;-65
2023/01/02 10:27:53;;;;;;;14.17;11.27;;;10.40;99.90;;;;;;6302977;28;20519;-65
2023/01/02 10:31:02;;;;;;;15.67;11.60;;;10.50;99.90;;;;;;6303130;28;20790;-63
2023/01/02 10:34:15;;;;;;;13.43;11.93;;;10.50;99.90;;;;;;6283210;28;20954;-63
2023/01/02 10:37:18;;;;;;;17.40;11.50;;;10.60;99.90;;;;;;6276939;28;20954;-64
2023/01/02 10:40:22;;;;;;;12.33;10.90;;;10.50;99.90;;;;;;6277537;28;20470;-64
2023/01/02 10:43:28;;;;;;;11.07;9.93;;;10.50;99.90;;;;;;6277193;28;20477;-64
2023/01/02 10:46:35;;;;;;;12.07;10.80;;;10.50;99.90;;;;;;6276737;28;20474;-63
2023/01/02 10:49:40;;;;;;;11.07;9.97;;;10.60;99.90;;;;;;6276585;28;20470;-63
2023/01/02 10:52:46;;;;;;;10.77;9.13;;;10.60;99.90;;;;;;6276778;28;20482;-63
2023/01/02 10:55:50;;;;;;;10.67;9.63;;;10.60;99.90;;;;;;6277501;28;20470;-63
2023/01/02 10:58:53;;;;;;;13.30;10.30;;;10.60;99.90;;;;;;6276614;28;20481;-63
2023/01/02 11:01:59;;;;;;;13.80;9.77;;;10.70;99.90;;;;;;6276301;28;20478;-64
2023/01/02 11:05:06;;;;;;;10.90;9.70;;;10.70;99.90;;;;;;6276761;28;20478;-63
2023/01/02 11:08:12;;;;;;;10.87;8.93;;;10.90;99.90;;;;;;6272876;28;20485;-64
2023/01/02 11:11:17;;;;;;;12.00;8.90;;;11.00;99.90;;;;;;6264726;28;20474;-63
2023/01/02 11:14:28;;;;;;;13.03;8.13;;;11.10;99.90;;;;;;6262833;28;20486;-63
2023/01/02 11:17:42;;;;;;;10.60;8.67;;;11.30;99.90;;;;;;6261556;28;20474;-62
2023/01/02 11:20:49;;;;;;;9.10;8.10;;;11.50;99.50;;;;;;6272774;28;20439;-63
2023/01/02 11:23:59;;;;;;;8.60;7.37;;;13.80;99.50;;;;;;6275581;28;20799;-64
2023/01/02 11:27:03;;;;;;;8.87;8.07;;;18.70;92.90;;;;;;6296415;28;20969;-62
2023/01/02 11:30:08;;;;;;;8.30;7.50;;;20.80;75.00;;;;;;6280755;28;20466;-64
2023/01/02 11:33:25;;;;;;;10.87;9.67;;;20.10;67.00;;;;;;6266921;28;20690;-64
2023/01/02 11:36:29;;;;;;;11.43;8.90;;;19.10;67.30;;;;;;6275844;28;20238;-62
2023/01/02 11:39:34;;;;;;;9.30;8.30;;;19.50;70.10;;;;;;6275358;28;20247;-62
2023/01/02 11:46:05;;;;;;;10.17;9.13;;;27.50;49.80;;;;;;6268932;28;20572;-64
2023/01/02 11:49:16;;;;;;;10.70;9.53;;;31.20;36.60;;;;;;6273556;28;20295;-63
2023/01/02 11:52:25;;;;;;;11.27;9.98;;;33.60;31.10;;;;;;6273802;28;20231;-63
2023/01/02 11:55:41;;;;;;;12.45;9.65;;;35.60;26.90;;;;;;6273446;28;20596;-64
2023/01/02 11:58:52;;;;;;;10.18;9.23;;;37.00;24.80;;;;;;6273721;28;20241;-64
2023/01/02 12:02:00;;;;;;;10.02;9.02;;;38.20;22.60;;;;;;6274362;28;21003;-64
2023/01/02 12:05:11;;;;;;;11.00;10.00;;;38.30;21.70;;;;;;6274638;28;20232;-64
2023/01/02 12:08:23;;;;;;;11.35;10.00;;;35.80;22.40;;;;;;6274579;28;20242;-63
2023/01/02 12:11:40;;;;;;;11.80;10.60;;;32.30;24.70;;;;;;6275277;28;20220;-64
2023/01/02 12:15:00;;;;;;;9.43;8.63;;;30.40;27.10;;;;;;6274688;28;20223;-64
2023/01/02 12:18:15;;;;;;;9.63;8.73;;;31.50;26.90;;;;;;6274617;28;20663;-63
2023/01/02 12:21:24;;;;;;;8.88;8.07;;;33.70;24.60;;;;;;6274743;28;20239;-64
2023/01/02 12:24:43;;;;;;;9.20;8.30;;;34.10;23.90;;;;;;6275410;28;20246;-64
2023/01/02 12:27:54;;;;;;;7.97;7.28;;;33.20;24.10;;;;;;6251830;28;20246;-63
2023/01/02 12:31:15;;;;;;;7.43;5.70;;;31.60;25.50;;;;;;6251306;28;20239;-63
2023/01/02 12:34:34;;;;;;;6.50;6.00;;;31.10;26.40;;;;;;6269099;28;20246;-63
2023/01/02 12:37:47;;;;;;;5.97;5.35;;;33.00;25.30;;;;;;6274076;28;20267;-63
2023/01/02 12:40:59;;;;;;;5.25;4.78;;;34.60;23.80;;;;;;6274640;28;20571;-63
2023/01/02 12:44:16;;;;;;;5.00;4.60;;;35.80;22.70;;;;;;6275472;28;20224;-63
2023/01/02 12:47:42;;;;;;;5.32;4.82;;;37.10;22.00;;;;;;6274078;28;20231;-64
2023/01/02 12:51:05;;;;;;;3.75;3.38;;;38.30;21.00;;;;;;6273929;28;20227;-64
2023/01/02 12:54:30;;;;;;;3.90;3.55;;;39.00;20.40;;;;;;6274291;28;20251;-64
2023/01/02 12:57:41;;;;;;;4.97;3.25;;;39.70;19.70;;;;;;6274644;28;20372;-63
2023/01/02 13:01:06;;;;;;;4.82;3.92;;;39.80;19.30;;;;;;6275015;28;20242;-63
2023/01/02 13:04:18;;;;;;;5.10;4.45;;;39.10;19.40;;;;;;6273984;28;20235;-63
2023/01/02 13:07:28;;;;;;;4.50;4.15;;;39.30;19.40;;;;;;6273944;28;20544;-63
2023/01/02 13:10:34;;;;;;;4.97;4.40;;;39.10;19.30;;;;;;6274011;28;20234;-63
2023/01/02 13:13:38;;;;;;;5.95;4.00;;;36.80;20.50;;;;;;6278100;28;20230;-65
2023/01/02 13:16:45;;;;;;;4.43;4.00;;;33.90;22.60;;;;;;6278260;28;20309;-63
2023/01/02 13:19:55;;;;;;;4.43;4.03;;;32.50;24.40;;;;;;6278476;28;20260;-64
2023/01/02 13:23:08;;;;;;;3.92;3.53;;;33.40;24.20;;;;;;6278826;28;20231;-64
2023/01/02 13:26:16;;;;;;;3.50;3.20;;;34.70;23.40;;;;;;6292379;28;20226;-64
2023/01/02 13:29:22;;;;;;;3.85;3.55;;;35.90;22.40;;;;;;6303078;28;20546;-64
2023/01/02 13:32:28;;;;;;;3.92;3.63;;;35.90;21.70;;;;;;6298775;28;20433;-64
2023/01/02 13:35:36;;;;;;;5.03;4.03;;;33.90;22.80;;;;;;6277790;28;20235;-64
2023/01/02 13:38:40;;;;;;;4.88;3.45;;;32.30;24.60;;;;;;6278317;28;20227;-63
2023/01/02 13:45:17;;;;;;;5.65;3.80;;;33.40;24.00;;;;;;6278805;28;20222;-64
2023/01/02 13:48:24;;;;;;;7.20;4.50;;;34.40;23.40;;;;;;6277266;28;20569;-65
2023/01/02 13:51:30;;;;;;;4.57;3.63;;;34.80;22.90;;;;;;6278096;28;20246;-64
2023/01/02 13:54:37;;;;;;;3.95;3.55;;;34.70;22.80;;;;;;6277467;28;20239;-65
2023/01/02 13:57:42;;;;;;;5.20;4.63;;;34.90;22.80;;;;;;6276105;28;20227;-68
2023/01/02 14:00:47;;;;;;;5.60;4.22;;;35.10;22.70;;;;;;6255623;28;20234;-64
2023/01/02 14:04:29;;;;;;;3.47;3.17;;;35.10;22.70;;;;;;6265957;28;20231;-64
2023/01/02 14:07:48;;;;;;;4.30;3.80;;;35.00;22.80;;;;;;6265637;28;20227;-64
2023/01/02 14:10:54;;;;;;;4.45;4.05;;;34.60;22.90;;;;;;6266218;28;20307;-64
2023/01/02 14:13:59;;;;;;;4.38;3.97;;;34.30;23.20;;;;;;6274450;28;20694;-64
2023/01/02 14:17:15;;;;;;;3.90;3.60;;;33.90;23.40;;;;;;6277487;28;20547;-63
2023/01/02 14:20:23;;;;;;;16.00;11.32;;;33.20;23.90;;;;;;6277131;28;20588;-64
2023/01/02 14:23:29;;;;;;;6.17;5.13;;;32.40;24.60;;;;;;6276855;28;20234;-63
2023/01/02 14:26:35;;;;;;;5.47;4.97;;;30.90;25.90;;;;;;6294169;28;20218;-64
2023/01/02 14:29:46;;;;;;;5.70;5.20;;;29.30;27.40;;;;;;6302339;28;20236;-64
2023/01/02 14:32:58;;;;;;;5.77;5.27;;;27.60;29.40;;;;;;6293877;28;20223;-64
2023/01/02 14:36:06;;;;;;;6.03;4.43;;;26.10;31.00;;;;;;6276995;28;20243;-64
2023/01/02 14:39:18;;;;;;;5.47;4.97;;;24.60;33.40;;;;;;6277585;28;20236;-64
2023/01/02 14:45:51;;;;;;;3.60;3.30;;;21.80;37.60;;;;;;6273144;28;20231;-63
2023/01/02 14:48:57;;;;;;;4.60;4.20;;;20.60;39.90;;;;;;6273110;28;20332;-64
2023/01/02 14:52:07;;;;;;;5.03;4.50;;;19.60;42.00;;;;;;6276469;28;20258;-64
2023/01/02 14:55:15;;;;;;;5.10;4.67;;;18.80;43.90;;;;;;6276641;28;20231;-62
2023/01/02 14:58:25;;;;;;;7.83;4.83;;;18.00;45.60;;;;;;6267062;28;20489;-62
2023/01/02 15:01:34;;;;;;;6.57;5.97;;;17.40;47.40;;;;;;6276556;28;20481;-62
2023/01/02 15:04:50;;;;;;;73.33;51.73;;;16.90;48.90;;;;;;6266615;28;20795;-62
2023/01/02 15:07:57;;;;;;;19.37;15.73;;;16.30;51.50;;;;;;6275270;28;20474;-61
2023/01/02 15:14:23;;;;;;;8.50;5.17;;;15.50;53.40;;;;;;6276430;28;20489;-62
2023/01/02 15:17:27;;;;;;;5.83;3.93;;;15.20;54.90;;;;;;6276781;28;20474;-62
2023/01/02 15:20:33;;;;;;;9.10;5.37;;;14.90;56.70;;;;;;6276048;28;20469;-62
2023/01/02 15:23:37;;;;;;;5.57;4.80;;;14.60;58.20;;;;;;6273162;28;20427;-62
2023/01/02 15:26:43;;;;;;;8.20;5.60;;;14.20;60.70;;;;;;6293867;28;20448;-62
2023/01/02 15:29:48;;;;;;;5.87;5.00;;;13.90;63.30;;;;;;6300680;28;20917;-62
2023/01/02 15:32:53;;;;;;;10.50;6.27;;;13.70;66.60;;;;;;6292971;28;20468;-63
2023/01/02 15:36:00;;;;;;;14.60;11.13;;;13.50;69.10;;;;;;6274524;28;20475;-61
2023/01/02 15:39:15;;;;;;;12.77;9.83;;;13.20;71.80;;;;;;6275066;28;20547;-60
2023/01/02 15:45:46;;;;;;;9.53;8.53;;;12.70;78.80;;;;;;6273676;28;20540;-60
2023/01/02 15:48:51;;;;;;;10.13;7.67;;;12.50;81.80;;;;;;6275176;28;20501;-63
2023/01/02 15:51:56;;;;;;;10.93;8.43;;;12.40;84.00;;;;;;6274786;28;20490;-63
2023/01/02 15:55:00;;;;;;;12.53;11.33;;;12.30;85.90;;;;;;6275163;28;20482;-62
2023/01/02 15:58:19;;;;;;;22.07;18.37;;;12.20;87.20;;;;;;6273281;28;20938;-62
2023/01/02 16:01:23;;;;;;;14.97;12.93;;;12.20;89.20;;;;;;6259011;28;20471;-61
2023/01/02 16:04:30;;;;;;;20.80;15.97;;;12.00;90.10;;;;;;6249966;28;20568;-61
2023/01/02 16:07:36;;;;;;;23.00;15.90;;;11.90;90.90;;;;;;6250005;28;20480;-61
2023/01/02 16:10:45;;;;;;;9.47;7.73;;;11.80;91.70;;;;;;6249763;28;20528;-63
2023/01/02 16:17:23;;;;;;;12.47;9.53;;;11.40;92.90;;;;;;6260473;28;20485;-63
2023/01/02 16:20:29;;;;;;;19.73;17.00;;;11.40;94.00;;;;;;6260637;28;20472;-64
2023/01/02 16:23:32;;;;;;;10.50;8.03;;;11.30;94.60;;;;;;6259798;28;20909;-63
2023/01/02 16:26:40;;;;;;;9.57;8.60;;;11.20;95.00;;;;;;6284096;28;20877;-66
2023/01/02 16:29:44;;;;;;;12.40;8.43;;;11.10;95.50;;;;;;6267856;28;20454;-65
2023/01/02 16:32:48;;;;;;;10.87;9.23;;;11.00;96.00;;;;;;6257491;28;20443;-65
2023/01/02 16:35:55;;;;;;;10.73;8.87;;;10.90;96.50;;;;;;6268439;28;20481;-65